Informes de METAR cercanos

 

LEXJ - Santander/Parayas, Spain
Distance from station: ESE 6km
Updated: 30/10/2020 13:30
Clear
Clear
 Wind from varies
Wind: varies 2 km/h
Temperature: 18°C
Dew Point: 13°C
Humidity: 73%
Barometer: 1024 hPa
Summary: Clear
Visibility: greater than 10 km
2020/10/30 12:30 LEXJ 301230Z VRB01KT CAVOK 18/13 Q1024
LEBB - Bilbao/Sondica, Spain
Distance from station: ESE 80km
Updated: 30/10/2020 13:30
Few Clouds
Few Clouds
 Wind from W
Wind: W 11 km/h
Temperature: 19°C
Dew Point: 15°C
Humidity: 78%
Barometer: 1024 hPa
Clouds: Few Clouds
Visibility: 10 km
Cloud details: Few Clouds 610 m
2020/10/30 12:30 LEBB 301230Z 27006KT 220V320 9999 FEW020 19/15 Q1024 NOSIG
 
LEBL - Barcelona Airpor, Spain
Distance from station: ESE 726km
Updated: 30/10/2020 13:30
Clear
Clear
 Wind from SSW
Wind: SSW 15 km/h
Temperature: 20°C
Dew Point: 12°C
Humidity: 60%
Barometer: 1024 hPa
Summary: Clear
Visibility: greater than 10 km
2020/10/30 12:30 LEBL 301230Z 21008KT CAVOK 20/12 Q1024 NOSIG
LEMD - Madrid/Barajas, Spain
Distance from station: S 325km
Updated: 30/10/2020 13:30
Clear
Clear
 Wind from WSW
Wind: WSW 2 km/h
Temperature: 17°C
Dew Point: 10°C
Humidity: 64%
Barometer: 1027 hPa
Summary: Clear
Visibility: greater than 10 km
2020/10/30 12:30 LEMD 301230Z 24001KT CAVOK 17/10 Q1027 NOSIG
 
LPPT - Lisbon/Portela, Portugal
Distance from station: SW 663km
Updated: 30/10/2020 13:30
Clear
Clear
 Wind from ENE
Wind: ENE 11 km/h
Temperature: 21°C
Dew Point: 15°C
Humidity: 69%
Barometer: 1024 hPa
Summary: Clear
Visibility: greater than 10 km
2020/10/30 12:30 LPPT 301230Z 07006KT 040V100 CAVOK 21/15 Q1024
LECO - La Coruna/Alvedr, Spain
Distance from station: W 349km
Updated: 30/10/2020 13:30
Few Clouds
Few Clouds
 Wind from SSW
Wind: SSW 19 km/h
Temperature: 19°C
Dew Point: 13°C
Humidity: 68%
Barometer: 1023 hPa
Clouds: Few Clouds
Visibility: 10 km
Cloud details: Few Clouds 1158 m
2020/10/30 12:30 LECO 301230Z 20010KT 160V230 9999 FEW038 19/13 Q1023 NOSIG
 
LEST - Santiago/Labacol, Spain
Distance from station: W 358km
Updated: 30/10/2020 13:30
Mostly cloudy
Mostly cloudy
 Wind from WSW
Wind: WSW 11 km/h
Temperature: 18°C
Dew Point: 12°C
Humidity: 68%
Barometer: 1025 hPa
Clouds: Mostly cloudy
Visibility: 10 km
Cloud details: Few Clouds 610 m
Mostly cloudy 914 m
2020/10/30 12:30 LEST 301230Z 25006KT 170V300 9999 FEW020 BKN030 18/12 Q1025 NOSIG
EBBR - Brussels International Airport, Belgium
Distance from station: W 1339km
Updated: 30/10/2020 13:20
Mostly cloudy
Mostly cloudy
 Wind from SW
Wind: SW 26 km/h
Temperature: 15°C
Dew Point: 11°C
Humidity: 77%
Barometer: 1020 hPa
Clouds: Mostly cloudy
Visibility: 10 km
Cloud details: Few Clouds 671 m
Mostly cloudy 1067 m
2020/10/30 12:20 EBBR 301220Z 23014KT 9999 FEW022 BKN035 15/11 Q1020 TEMPO BKN012